Time;durP1;ratioP1;P1;durP2;ratioP2;P2;SDS_P1;SDS_P2;PMS_P1;PMS_P2;Temp;Humidity;BMP_temperature;BMP_pressure;BME280_temperature;BME280_humidity;BME280_pressure;Samples;Min_cycle;Max_cycle;Signal;HPM_P1;HPM_P2
2024/01/15 00:01:44;;;;;;;7.68;0.93;;;;;;;24.79;23.94;99250.53;7392836;19;20077;-59
2024/01/15 00:04:10;;;;;;;0.70;0.70;;;;;;;24.87;23.68;99239.03;7396021;19;20015;-59
2024/01/15 00:06:36;;;;;;;5.25;1.27;;;;;;;25.19;23.49;99242.38;7395115;19;20021;-59
2024/01/15 00:09:03;;;;;;;3.40;2.20;;;;;;;25.26;23.74;99238.66;7393491;19;20010;-59
2024/01/15 00:11:29;;;;;;;1.65;1.55;;;;;;;25.14;23.39;99234.88;7394716;19;20021;-60
2024/01/15 00:13:55;;;;;;;3.88;2.08;;;;;;;25.45;23.19;99235.16;7395208;19;20006;-60
2024/01/15 00:16:21;;;;;;;0.47;0.47;;;;;;;25.14;23.51;99234.09;7393528;19;20013;-59
2024/01/15 00:18:47;;;;;;;0.15;0.15;;;;;;;24.08;24.40;99230.44;7395166;19;20355;-59
2024/01/15 00:21:13;;;;;;;0.50;0.50;;;;;;;23.50;24.57;99239.66;7396711;19;20011;-59
2024/01/15 00:23:46;;;;;;;0.35;0.35;;;;;;;23.03;25.20;99231.25;7394032;19;20014;-59
2024/01/15 00:26:12;;;;;;;1.23;1.15;;;;;;;23.18;25.16;99231.16;7393743;19;20043;-59
2024/01/15 00:28:38;;;;;;;0.25;0.25;;;;;;;23.35;24.60;99219.88;7393836;19;20014;-59
2024/01/15 00:31:05;;;;;;;1.40;1.30;;;;;;;23.77;24.60;99217.81;7394489;19;20032;-59
2024/01/15 00:33:31;;;;;;;5.03;1.85;;;;;;;25.00;23.48;99213.03;7394290;19;20014;-59
2024/01/15 00:35:58;;;;;;;1.30;1.17;;;;;;;23.30;24.85;99215.16;7394101;19;20010;-59
2024/01/15 00:38:24;;;;;;;1.63;1.20;;;;;;;22.80;25.06;99224.94;7394541;19;20007;-59
2024/01/15 00:40:50;;;;;;;1.25;0.73;;;;;;;22.60;25.37;99223.91;7392517;19;20018;-59
2024/01/15 00:43:18;;;;;;;13.45;3.13;;;;;;;22.50;25.53;99226.53;7393296;19;20033;-59
2024/01/15 00:45:45;;;;;;;0.30;0.30;;;;;;;22.59;25.21;99220.28;7393183;19;20007;-59
2024/01/15 00:48:11;;;;;;;0.88;0.88;;;;;;;23.51;24.33;99206.31;7392370;19;20025;-59
2024/01/15 00:50:37;;;;;;;0.95;0.60;;;;;;;23.27;24.72;99222.00;7393988;19;20458;-59
2024/01/15 00:53:03;;;;;;;2.47;1.63;;;;;;;22.96;24.83;99226.34;7392889;19;20019;-59
2024/01/15 00:55:30;;;;;;;0.75;0.43;;;;;;;22.91;24.97;99230.19;7394506;19;20022;-59
2024/01/15 00:57:56;;;;;;;1.45;1.02;;;;;;;23.10;24.71;99224.75;7393617;19;20006;-59
2024/01/15 01:00:22;;;;;;;0.20;0.20;;;;;;;22.88;24.76;99228.47;7392147;19;20445;-59
2024/01/15 01:02:48;;;;;;;3.53;1.58;;;;;;;22.93;24.45;99227.53;7392568;19;20021;-59
2024/01/15 01:05:14;;;;;;;1.25;1.15;;;;;;;23.02;24.57;99230.47;7392589;19;20359;-59
2024/01/15 01:07:40;;;;;;;1.45;1.30;;;;;;;22.97;24.59;99230.72;7391361;19;20027;-59
2024/01/15 01:10:07;;;;;;;1.25;0.93;;;;;;;23.20;24.75;99219.94;7391682;19;20022;-59
2024/01/15 01:12:33;;;;;;;1.23;0.50;;;;;;;22.97;24.87;99227.88;7393346;19;20035;-59
2024/01/15 01:14:59;;;;;;;0.20;0.20;;;;;;;22.90;24.83;99228.66;7392559;19;20463;-59
2024/01/15 01:17:26;;;;;;;1.38;1.30;;;;;;;23.43;24.53;99214.16;7394101;19;20014;-59
2024/01/15 01:19:52;;;;;;;0.82;0.82;;;;;;;23.24;24.85;99211.78;7393839;19;20019;-59
2024/01/15 01:22:18;;;;;;;0.40;0.40;;;;;;;23.68;24.38;99203.50;7394976;19;20017;-59
2024/01/15 01:24:44;;;;;;;0.45;0.40;;;;;;;23.55;24.63;99200.97;7390393;19;20083;-59
2024/01/15 01:27:10;;;;;;;0.38;0.38;;;;;;;23.17;24.94;99206.91;7392000;19;20021;-59
2024/01/15 01:29:36;;;;;;;0.35;0.35;;;;;;;23.24;25.06;99194.72;7392565;19;20030;-59
2024/01/15 01:32:03;;;;;;;0.57;0.57;;;;;;;23.53;24.48;99204.38;7391440;19;20033;-59
2024/01/15 01:34:30;;;;;;;0.10;0.10;;;;;;;23.46;24.99;99205.19;7391620;19;20027;-59
2024/01/15 01:36:56;;;;;;;0.20;0.20;;;;;;;23.11;25.05;99203.53;7392453;19;20025;-59
2024/01/15 01:39:22;;;;;;;0.45;0.43;;;;;;;23.13;25.30;99201.63;7391687;19;20014;-59
2024/01/15 01:41:48;;;;;;;0.22;0.22;;;;;;;23.85;24.60;99204.28;7391431;19;20011;-59
2024/01/15 01:44:14;;;;;;;0.20;0.20;;;;;;;24.03;24.19;99202.97;7392378;19;20340;-59
2024/01/15 01:46:41;;;;;;;0.38;0.38;;;;;;;23.92;24.32;99206.31;7390189;19;20015;-59
2024/01/15 01:49:08;;;;;;;0.95;0.68;;;;;;;22.82;25.12;99205.25;7392297;19;20011;-59
2024/01/15 01:51:37;;;;;;;0.40;0.40;;;;;;;21.48;26.18;99222.75;7392972;19;20007;-59
2024/01/15 01:54:04;;;;;;;0.50;0.50;;;;;;;21.17;26.51;99212.69;7391326;19;20018;-59
2024/01/15 01:56:31;;;;;;;0.47;0.47;;;;;;;21.20;26.48;99220.09;7392559;19;20015;-59
2024/01/15 01:58:57;;;;;;;3.72;0.82;;;;;;;21.42;26.24;99217.25;7390823;19;20015;-59
2024/01/15 02:01:23;;;;;;;0.47;0.47;;;;;;;22.57;25.17;99225.75;7389586;19;20257;-58
2024/01/15 02:03:50;;;;;;;0.65;0.35;;;;;;;19.65;27.76;99222.53;7392668;19;20010;-59
2024/01/15 02:06:16;;;;;;;2.40;0.88;;;;;;;19.16;28.00;99216.06;7390268;19;20088;-59
2024/01/15 02:08:43;;;;;;;0.30;0.20;;;;;;;18.39;28.80;99218.53;7390758;19;20352;-58
2024/01/15 02:11:09;;;;;;;0.45;0.45;;;;;;;17.63;29.42;99223.09;7392860;19;20015;-58
2024/01/15 02:13:35;;;;;;;0.20;0.20;;;;;;;17.33;30.08;99222.59;7391513;19;20011;-58
2024/01/15 02:16:02;;;;;;;0.20;0.20;;;;;;;17.01;30.18;99219.00;7391153;19;20021;-58
2024/01/15 02:18:28;;;;;;;0.20;0.20;;;;;;;17.47;29.97;99215.69;7391687;19;20035;-58
2024/01/15 02:20:54;;;;;;;12.50;0.95;;;;;;;17.24;29.97;99217.34;7393377;19;20021;-59
2024/01/15 02:23:20;;;;;;;0.25;0.25;;;;;;;18.17;29.28;99212.06;7390550;19;20014;-58
2024/01/15 02:25:47;;;;;;;0.20;0.20;;;;;;;18.27;29.17;99211.63;7392336;19;20008;-58
2024/01/15 02:28:17;;;;;;;1.50;0.38;;;;;;;18.12;29.10;99212.19;7390473;19;20010;-59
2024/01/15 02:30:46;;;;;;;0.82;0.40;;;;;;;18.19;29.07;99212.28;7387716;19;20015;-59
2024/01/15 02:33:12;;;;;;;0.10;0.10;;;;;;;18.29;29.06;99221.06;7387182;19;20021;-58
2024/01/15 02:35:38;;;;;;;0.10;0.10;;;;;;;18.44;28.81;99220.50;7391143;19;20019;-58
2024/01/15 02:38:06;;;;;;;0.73;0.73;;;;;;;19.18;27.82;99219.84;7388382;19;20006;-59
2024/01/15 02:40:32;;;;;;;0.30;0.30;;;;;;;18.62;28.48;99214.75;7394450;19;20045;-58
2024/01/15 02:42:59;;;;;;;0.10;0.10;;;;;;;18.06;29.02;99220.00;7397218;19;20019;-58
2024/01/15 02:45:25;;;;;;;0.20;0.20;;;;;;;18.35;28.79;99229.38;7400956;19;20474;-58
2024/01/15 02:47:51;;;;;;;0.30;0.30;;;;;;;20.43;27.19;99221.13;7397256;19;20019;-59
2024/01/15 02:50:18;;;;;;;0.50;0.50;;;;;;;19.57;27.06;99216.84;7398692;19;20011;-59
2024/01/15 02:52:44;;;;;;;0.20;0.20;;;;;;;18.43;28.18;99219.72;7396148;19;20010;-58
2024/01/15 02:55:10;;;;;;;1.50;0.57;;;;;;;20.14;26.94;99216.84;7400569;19;20020;-51
2024/01/15 02:57:36;;;;;;;0.57;0.57;;;;;;;19.67;26.91;99214.25;7397648;19;20344;-51
2024/01/15 03:00:03;;;;;;;1.75;0.85;;;;;;;19.95;26.82;99205.00;7398249;19;20021;-51
2024/01/15 03:02:31;;;;;;;1.10;1.00;;;;;;;20.29;26.52;99205.63;7395648;19;20509;-50
2024/01/15 03:04:57;;;;;;;1.48;1.38;;;;;;;20.32;26.21;99202.44;7399383;19;20021;-51
2024/01/15 03:07:23;;;;;;;0.20;0.20;;;;;;;20.41;26.11;99201.16;7397236;19;20477;-50
2024/01/15 03:09:50;;;;;;;0.40;0.40;;;;;;;20.45;26.04;99201.53;7396586;19;20017;-50
2024/01/15 03:12:16;;;;;;;0.68;0.52;;;;;;;21.43;25.19;99207.44;7396443;19;20029;-50
2024/01/15 03:14:42;;;;;;;0.32;0.32;;;;;;;22.09;24.68;99197.94;7400117;19;20332;-51
2024/01/15 03:17:09;;;;;;;0.28;0.28;;;;;;;21.73;24.81;99209.50;7395862;19;20037;-50
2024/01/15 03:19:36;;;;;;;0.30;0.30;;;;;;;21.89;24.62;99205.38;7396995;19;20018;-50
2024/01/15 03:22:03;;;;;;;0.22;0.22;;;;;;;21.70;24.66;99208.56;7397436;19;20367;-50
2024/01/15 03:24:31;;;;;;;0.43;0.43;;;;;;;21.27;25.40;99193.84;7399056;19;20021;-51
2024/01/15 03:26:57;;;;;;;0.57;0.57;;;;;;;19.68;26.39;99199.56;7397013;19;20018;-50
2024/01/15 03:29:23;;;;;;;0.47;0.47;;;;;;;20.16;26.30;99192.31;7395800;19;20018;-51
2024/01/15 03:31:49;;;;;;;0.80;0.63;;;;;;;19.97;26.06;99199.56;7397319;19;20014;-50
2024/01/15 03:34:15;;;;;;;0.10;0.10;;;;;;;19.59;26.27;99205.72;7397460;19;20014;-51
2024/01/15 03:36:41;;;;;;;0.40;0.40;;;;;;;20.15;25.70;99201.38;7394358;19;20017;-51
2024/01/15 03:39:07;;;;;;;0.30;0.30;;;;;;;20.21;25.96;99187.84;7396845;19;20022;-50
2024/01/15 03:41:33;;;;;;;0.20;0.20;;;;;;;20.35;25.67;99189.25;7396298;19;20694;-51
2024/01/15 03:44:00;;;;;;;0.50;0.50;;;;;;;20.47;25.32;99184.75;7394132;19;20030;-50
2024/01/15 03:46:26;;;;;;;3.15;0.82;;;;;;;20.52;25.58;99192.31;7397980;19;20021;-50
2024/01/15 03:48:53;;;;;;;0.10;0.10;;;;;;;19.84;26.13;99191.22;7392695;19;20463;-51
2024/01/15 03:51:19;;;;;;;0.52;0.52;;;;;;;20.30;25.49;99190.91;7397083;19;20015;-51
2024/01/15 03:53:46;;;;;;;0.68;0.68;;;;;;;19.83;26.02;99189.69;7393918;19;20074;-51
2024/01/15 03:56:12;;;;;;;0.30;0.30;;;;;;;20.16;25.88;99188.75;7395922;19;20015;-50
2024/01/15 03:58:38;;;;;;;0.47;0.47;;;;;;;20.37;25.22;99189.44;7398207;19;20014;-51
2024/01/15 04:01:09;;;;;;;0.50;0.50;;;;;;;21.14;25.12;99177.75;7394894;19;20014;-51
2024/01/15 04:03:35;;;;;;;0.40;0.40;;;;;;;22.19;24.06;99179.75;7396376;19;20011;-51
2024/01/15 04:06:02;;;;;;;0.40;0.40;;;;;;;22.17;23.95;99176.75;7393967;19;20006;-51
2024/01/15 04:08:28;;;;;;;3.38;1.10;;;;;;;22.43;23.63;99175.50;7396293;19;20011;-51
2024/01/15 04:10:54;;;;;;;0.40;0.40;;;;;;;22.17;24.29;99170.31;7395328;19;20007;-51
2024/01/15 04:13:21;;;;;;;0.22;0.22;;;;;;;22.27;24.12;99176.88;7395463;19;20351;-51
2024/01/15 04:15:47;;;;;;;0.50;0.50;;;;;;;22.35;24.07;99174.78;7393777;19;20018;-51
2024/01/15 04:18:13;;;;;;;0.40;0.40;;;;;;;22.26;24.00;99169.72;7396215;19;20011;-51
2024/01/15 04:20:39;;;;;;;0.40;0.40;;;;;;;22.07;24.36;99172.97;7393794;19;20367;-51
2024/01/15 04:23:06;;;;;;;0.20;0.20;;;;;;;22.13;23.90;99170.72;7395118;19;20011;-51
2024/01/15 04:25:32;;;;;;;0.47;0.47;;;;;;;21.65;24.68;99169.09;7395250;19;20022;-51
2024/01/15 04:27:58;;;;;;;0.32;0.32;;;;;;;21.32;24.79;99167.38;7393887;19;20038;-51
2024/01/15 04:30:24;;;;;;;6.03;1.75;;;;;;;21.37;24.70;99163.63;7395077;19;20015;-51
2024/01/15 04:32:50;;;;;;;0.45;0.45;;;;;;;21.31;24.58;99154.56;7393530;19;20350;-51
2024/01/15 04:35:17;;;;;;;2.03;1.60;;;;;;;21.82;24.10;99143.72;7393529;19;20014;-51
2024/01/15 04:37:43;;;;;;;22.60;2.20;;;;;;;24.27;22.64;99141.66;7392658;19;20463;-51
2024/01/15 04:40:09;;;;;;;0.30;0.30;;;;;;;25.33;21.75;99152.28;7392249;19;20010;-51
2024/01/15 04:42:36;;;;;;;0.28;0.28;;;;;;;25.16;21.77;99157.31;7393471;19;20070;-51
2024/01/15 04:45:02;;;;;;;0.70;0.70;;;;;;;25.09;21.99;99155.31;7392369;19;20402;-50
2024/01/15 04:47:28;;;;;;;0.63;0.63;;;;;;;25.02;22.47;99156.94;7394885;19;20014;-50
2024/01/15 04:49:54;;;;;;;0.30;0.30;;;;;;;24.45;22.72;99162.31;7392548;19;20478;-50
2024/01/15 04:52:20;;;;;;;0.30;0.30;;;;;;;23.94;23.25;99160.19;7397554;19;20006;-50
2024/01/15 04:54:46;;;;;;;1.52;1.30;;;;;;;24.92;22.44;99150.47;7392011;19;20014;-50
2024/01/15 04:57:13;;;;;;;1.20;1.10;;;;;;;24.25;23.22;99146.41;7396426;19;20411;-50
2024/01/15 04:59:39;;;;;;;0.20;0.20;;;;;;;23.46;23.45;99148.34;7392419;19;20015;-51
2024/01/15 05:02:05;;;;;;;0.60;0.60;;;;;;;23.39;23.55;99149.16;7392371;19;20014;-51
2024/01/15 05:04:32;;;;;;;1.15;0.93;;;;;;;23.62;23.61;99149.72;7393663;19;20011;-51
2024/01/15 05:06:59;;;;;;;14.90;0.82;;;;;;;24.04;23.15;99150.44;7392114;19;20006;-51
2024/01/15 05:09:25;;;;;;;0.30;0.30;;;;;;;23.16;23.68;99146.50;7398333;19;20007;-51
2024/01/15 05:11:51;;;;;;;0.40;0.40;;;;;;;23.00;23.65;99139.41;7391189;19;20354;-50
2024/01/15 05:14:17;;;;;;;0.22;0.22;;;;;;;22.14;24.52;99143.84;7391398;19;20435;-50
2024/01/15 05:16:48;;;;;;;0.40;0.40;;;;;;;20.30;25.32;99144.91;7394366;19;20033;-51
2024/01/15 05:19:14;;;;;;;0.28;0.28;;;;;;;18.56;27.38;99157.69;7391582;19;20027;-51
2024/01/15 05:21:40;;;;;;;2.08;0.80;;;;;;;19.49;26.38;99153.84;7396164;19;20328;-50
2024/01/15 05:24:07;;;;;;;0.52;0.52;;;;;;;19.81;26.33;99155.56;7393561;19;20015;-50
2024/01/15 05:26:34;;;;;;;0.17;0.17;;;;;;;18.85;26.92;99164.19;7391040;19;20014;-51
2024/01/15 05:29:00;;;;;;;0.10;0.10;;;;;;;18.70;27.07;99159.16;7391398;19;20048;-50
2024/01/15 05:31:26;;;;;;;2.25;0.65;;;;;;;18.08;27.79;99170.22;7391796;19;20355;-50
2024/01/15 05:33:53;;;;;;;0.20;0.20;;;;;;;18.27;27.32;99164.47;7389695;19;20010;-51
2024/01/15 05:36:19;;;;;;;0.65;0.65;;;;;;;17.93;27.52;99147.50;7391177;19;20014;-50
2024/01/15 05:38:45;;;;;;;0.90;0.70;;;;;;;17.30;28.23;99165.31;7390874;19;20388;-51
2024/01/15 05:41:11;;;;;;;0.63;0.63;;;;;;;16.39;29.06;99162.91;7394304;19;20015;-50
2024/01/15 05:43:37;;;;;;;1.00;1.00;;;;;;;15.77;29.94;99167.00;7392681;19;20010;-51
2024/01/15 05:46:03;;;;;;;0.45;0.45;;;;;;;15.48;30.20;99162.25;7391805;19;20070;-50
2024/01/15 05:48:30;;;;;;;0.35;0.35;;;;;;;18.13;27.78;99155.28;7390786;19;20100;-50
2024/01/15 05:50:56;;;;;;;0.35;0.35;;;;;;;17.14;28.70;99166.38;7392069;19;20010;-51
2024/01/15 05:53:22;;;;;;;0.75;0.50;;;;;;;17.41;28.21;99161.56;7390919;19;20073;-51
2024/01/15 05:55:48;;;;;;;0.13;0.13;;;;;;;19.31;26.90;99154.84;7391296;19;20018;-51
2024/01/15 05:58:14;;;;;;;0.93;0.85;;;;;;;19.96;26.31;99152.84;7390943;19;20021;-50
2024/01/15 06:00:40;;;;;;;0.98;0.85;;;;;;;18.25;27.43;99160.69;7390689;19;20010;-51
2024/01/15 06:03:07;;;;;;;0.75;0.75;;;;;;;18.10;27.79;99153.53;7389714;19;20007;-50
2024/01/15 06:05:33;;;;;;;0.25;0.25;;;;;;;18.38;27.42;99166.28;7392795;19;20018;-51
2024/01/15 06:07:59;;;;;;;0.57;0.57;;;;;;;17.92;27.70;99167.75;7390866;19;20014;-51
2024/01/15 06:10:25;;;;;;;0.63;0.63;;;;;;;17.98;27.81;99171.22;7388789;19;20074;-50
2024/01/15 06:12:51;;;;;;;0.22;0.22;;;;;;;18.41;27.81;99165.94;7392855;19;20014;-50
2024/01/15 06:15:18;;;;;;;0.60;0.60;;;;;;;19.47;26.49;99164.94;7396954;19;20006;-51
2024/01/15 06:17:44;;;;;;;0.10;0.10;;;;;;;19.57;26.38;99157.50;7398638;19;20014;-50
2024/01/15 06:20:11;;;;;;;0.30;0.30;;;;;;;20.15;25.85;99168.19;7398421;19;20007;-50
2024/01/15 06:22:39;;;;;;;0.32;0.32;;;;;;;20.34;25.66;99176.41;7400442;19;20351;-50
2024/01/15 06:25:07;;;;;;;0.30;0.30;;;;;;;20.96;24.91;99188.09;7398911;19;20024;-50
2024/01/15 06:27:33;;;;;;;0.40;0.40;;;;;;;20.32;25.09;99188.28;7397367;19;20018;-50
2024/01/15 06:30:00;;;;;;;0.52;0.52;;;;;;;19.97;25.53;99185.44;7399192;19;20090;-50
2024/01/15 06:32:26;;;;;;;0.30;0.30;;;;;;;20.28;25.17;99195.63;7396995;19;20017;-51
2024/01/15 06:34:52;;;;;;;0.73;0.73;;;;;;;20.42;25.23;99194.19;7401685;19;20467;-51
2024/01/15 06:37:20;;;;;;;0.40;0.40;;;;;;;19.75;25.19;99203.00;7398153;19;20011;-50
2024/01/15 06:39:46;;;;;;;0.10;0.10;;;;;;;19.16;26.09;99208.34;7397526;19;20382;-51
2024/01/15 06:42:12;;;;;;;0.40;0.40;;;;;;;19.22;25.89;99211.78;7397693;19;20345;-50
2024/01/15 06:44:38;;;;;;;2.30;1.15;;;;;;;19.17;26.30;99209.09;7397822;19;20093;-50
2024/01/15 06:47:05;;;;;;;27.08;7.53;;;;;;;18.95;26.70;99199.09;7398104;19;20082;-50
2024/01/15 06:49:31;;;;;;;14.57;3.53;;;;;;;18.98;26.34;99200.81;7396748;19;20037;-50
2024/01/15 06:51:57;;;;;;;5.28;2.17;;;;;;;18.74;26.99;99199.06;7400150;19;20042;-50
2024/01/15 06:54:24;;;;;;;12.23;3.38;;;;;;;18.75;26.45;99199.84;7399207;19;20007;-50
2024/01/15 06:56:50;;;;;;;1.20;1.13;;;;;;;19.31;26.08;99193.59;7398266;19;20006;-51
2024/01/15 06:59:16;;;;;;;6.03;2.75;;;;;;;16.83;28.02;99197.31;7395993;19;20011;-51
2024/01/15 07:01:42;;;;;;;0.65;0.65;;;;;;;16.89;28.50;99198.72;7395162;19;20010;-50
2024/01/15 07:04:08;;;;;;;1.48;1.45;;;;;;;18.59;26.79;99186.84;7398202;19;20070;-50
2024/01/15 07:06:35;;;;;;;3.42;2.08;;;;;;;18.80;26.36;99191.22;7397316;19;20471;-51
2024/01/15 07:09:01;;;;;;;0.30;0.30;;;;;;;19.10;26.32;99185.13;7395999;19;20010;-51
2024/01/15 07:11:27;;;;;;;1.35;1.27;;;;;;;19.54;25.69;99203.03;7396406;19;20014;-50
2024/01/15 07:13:53;;;;;;;0.32;0.32;;;;;;;18.69;26.19;99204.84;7396553;19;20018;-50
2024/01/15 07:16:19;;;;;;;0.35;0.35;;;;;;;18.53;26.37;99220.06;7396119;19;20332;-50
2024/01/15 07:18:45;;;;;;;0.55;0.45;;;;;;;18.49;26.64;99222.47;7394758;19;20339;-50
2024/01/15 07:21:12;;;;;;;0.90;0.82;;;;;;;18.42;26.46;99223.09;7397233;19;20011;-50
2024/01/15 07:23:38;;;;;;;0.73;0.73;;;;;;;18.31;26.45;99229.72;7398376;19;20029;-50
2024/01/15 07:26:05;;;;;;;1.25;1.25;;;;;;;18.53;26.05;99228.53;7395392;19;20014;-51
2024/01/15 07:28:31;;;;;;;0.45;0.45;;;;;;;18.41;26.19;99238.50;7397996;19;20488;-50
2024/01/15 07:30:57;;;;;;;0.30;0.30;;;;;;;18.11;26.28;99245.25;7396458;19;20356;-50
2024/01/15 07:33:23;;;;;;;0.10;0.10;;;;;;;18.42;26.65;99234.38;7395680;19;20025;-50
2024/01/15 07:35:49;;;;;;;0.40;0.40;;;;;;;19.20;25.61;99228.53;7395682;19;20073;-50
2024/01/15 07:38:16;;;;;;;0.32;0.32;;;;;;;19.31;25.41;99213.38;7394150;19;20011;-50
2024/01/15 07:40:42;;;;;;;2.28;1.33;;;;;;;19.98;25.28;99213.16;7395264;19;20021;-50
2024/01/15 07:43:08;;;;;;;19.00;2.67;;;;;;;20.72;24.42;99208.44;7395673;19;20359;-51
2024/01/15 07:45:34;;;;;;;0.30;0.30;;;;;;;20.45;24.44;99218.50;7396103;19;20456;-51
2024/01/15 07:48:00;;;;;;;0.45;0.45;;;;;;;20.97;24.09;99228.50;7394004;19;20014;-50
2024/01/15 07:50:27;;;;;;;0.32;0.32;;;;;;;19.33;25.66;99236.94;7395341;19;20027;-50
2024/01/15 07:52:53;;;;;;;0.30;0.30;;;;;;;19.40;25.74;99247.56;7396605;19;20023;-50
2024/01/15 07:55:20;;;;;;;2.38;0.95;;;;;;;19.37;25.78;99243.00;7397734;19;20018;-50
2024/01/15 07:57:50;;;;;;;0.98;0.63;;;;;;;19.11;25.38;99247.97;7396158;19;20014;-50
2024/01/15 08:00:16;;;;;;;0.63;0.63;;;;;;;18.96;25.64;99253.47;7394824;19;20018;-50
2024/01/15 08:02:42;;;;;;;0.20;0.20;;;;;;;21.04;24.08;99245.53;7395403;19;20010;-51
2024/01/15 08:05:08;;;;;;;0.52;0.52;;;;;;;20.32;24.69;99253.34;7397811;19;20018;-50
2024/01/15 08:07:34;;;;;;;0.85;0.73;;;;;;;21.18;23.88;99259.53;7393587;19;20014;-50
2024/01/15 08:10:01;;;;;;;1.35;0.50;;;;;;;20.73;24.40;99249.56;7393345;19;20466;-50
2024/01/15 08:12:27;;;;;;;1.08;1.02;;;;;;;20.87;23.72;99264.31;7393733;19;20014;-50
2024/01/15 08:14:54;;;;;;;0.73;0.73;;;;;;;20.49;23.87;99269.09;7394390;19;20489;-50
2024/01/15 08:17:20;;;;;;;0.40;0.40;;;;;;;20.15;24.18;99280.53;7394672;19;20014;-50
2024/01/15 08:19:46;;;;;;;2.05;1.33;;;;;;;20.69;24.05;99283.13;7395100;19;20019;-50
2024/01/15 08:22:12;;;;;;;0.20;0.20;;;;;;;18.98;25.30;99288.31;7399340;19;20039;-50
2024/01/15 08:24:38;;;;;;;7.13;2.08;;;;;;;19.33;25.38;99281.34;7398484;19;20035;-50
2024/01/15 08:27:04;;;;;;;2.85;1.30;;;;;;;17.36;26.20;99300.34;7396944;19;20015;-50
2024/01/15 08:29:33;;;;;;;0.40;0.40;;;;;;;18.23;26.18;99302.16;7395787;19;20018;-50
2024/01/15 08:31:59;;;;;;;1.17;1.17;;;;;;;16.31;27.43;99310.91;7395032;19;20011;-50
2024/01/15 08:34:25;;;;;;;0.40;0.40;;;;;;;15.76;28.28;99317.13;7396441;19;20463;-50
2024/01/15 08:36:52;;;;;;;3.40;1.48;;;;;;;15.19;28.51;99321.59;7393347;19;20467;-50
2024/01/15 08:39:19;;;;;;;0.43;0.43;;;;;;;14.55;29.43;99325.03;7393514;19;20517;-51
2024/01/15 08:41:48;;;;;;;1.90;0.95;;;;;;;14.95;29.46;99329.13;7395121;19;20010;-50
2024/01/15 08:44:15;;;;;;;0.40;0.40;;;;;;;16.71;27.83;99328.09;7397551;19;20384;-50
2024/01/15 08:46:41;;;;;;;7.03;0.70;;;;;;;15.37;29.50;99330.66;7395485;19;20010;-50
2024/01/15 08:49:07;;;;;;;0.68;0.68;;;;;;;18.68;26.66;99333.09;7395977;19;20481;-50
2024/01/15 08:51:33;;;;;;;0.20;0.20;;;;;;;19.90;25.37;99327.47;7396971;19;20021;-50
2024/01/15 08:53:59;;;;;;;0.47;0.47;;;;;;;19.90;25.83;99330.28;7400089;19;20015;-50
2024/01/15 08:56:27;;;;;;;0.25;0.25;;;;;;;21.54;24.66;99325.31;7395324;19;20018;-50
2024/01/15 08:58:53;;;;;;;0.30;0.30;;;;;;;21.19;24.93;99329.00;7395395;19;20038;-50
2024/01/15 09:01:19;;;;;;;0.40;0.40;;;;;;;20.31;25.50;99330.25;7394838;19;20360;-50
2024/01/15 09:03:46;;;;;;;0.30;0.30;;;;;;;19.92;26.38;99327.66;7395854;19;20010;-50
2024/01/15 09:06:12;;;;;;;0.40;0.40;;;;;;;18.57;26.92;99344.59;7394485;19;20451;-50
2024/01/15 09:08:38;;;;;;;0.30;0.30;;;;;;;18.63;27.27;99348.03;7394878;19;20010;-50
2024/01/15 09:11:04;;;;;;;1.50;0.52;;;;;;;18.25;27.58;99343.91;7394138;19;20033;-50
2024/01/15 09:13:31;;;;;;;0.50;0.50;;;;;;;18.54;27.31;99349.25;7393883;19;20007;-50
2024/01/15 09:15:58;;;;;;;0.20;0.20;;;;;;;18.86;26.97;99351.94;7394541;19;20021;-50
2024/01/15 09:18:24;;;;;;;0.17;0.17;;;;;;;18.36;27.54;99354.97;7394473;19;20017;-50
2024/01/15 09:20:50;;;;;;;0.25;0.25;;;;;;;18.58;27.48;99354.56;7394241;19;20052;-50
2024/01/15 09:23:17;;;;;;;0.63;0.63;;;;;;;18.46;27.45;99347.63;7393350;19;20416;-50
2024/01/15 09:25:43;;;;;;;0.80;0.45;;;;;;;19.60;26.64;99347.72;7393694;19;20011;-50
2024/01/15 09:28:09;;;;;;;0.52;0.52;;;;;;;18.72;27.77;99350.44;7396345;19;20009;-50
2024/01/15 09:30:36;;;;;;;0.40;0.40;;;;;;;18.62;27.49;99360.66;7394595;19;20011;-50
2024/01/15 09:33:02;;;;;;;1.27;0.93;;;;;;;19.31;27.08;99357.38;7392620;19;20014;-50
2024/01/15 09:35:28;;;;;;;0.20;0.20;;;;;;;18.97;27.25;99354.53;7392484;19;20070;-50
2024/01/15 09:37:54;;;;;;;0.30;0.30;;;;;;;19.04;27.21;99359.50;7394460;19;20014;-50
2024/01/15 09:40:21;;;;;;;0.30;0.30;;;;;;;20.54;26.29;99356.63;7394173;19;20030;-50
2024/01/15 09:42:47;;;;;;;0.30;0.30;;;;;;;20.00;26.64;99348.28;7392960;19;20014;-50
2024/01/15 09:45:14;;;;;;;0.80;0.52;;;;;;;21.16;25.42;99347.13;7392061;19;20014;-50
2024/01/15 09:47:41;;;;;;;0.20;0.20;;;;;;;21.50;25.49;99354.03;7393065;19;20011;-50
2024/01/15 09:50:08;;;;;;;0.50;0.50;;;;;;;21.70;25.03;99343.88;7404358;19;20019;-50
2024/01/15 09:52:36;;;;;;;0.35;0.35;;;;;;;21.47;25.00;99355.16;7397703;19;20015;-50
2024/01/15 09:55:05;;;;;;;0.20;0.20;;;;;;;21.83;24.69;99344.47;7400613;19;20447;-50
2024/01/15 09:57:31;;;;;;;0.20;0.20;;;;;;;21.94;24.56;99345.44;7400540;19;20015;-50
2024/01/15 10:00:03;;;;;;;0.55;0.30;;;;;;;21.64;24.82;99346.88;7401293;19;20038;-50
2024/01/15 10:02:31;;;;;;;0.20;0.20;;;;;;;21.27;25.30;99352.47;7400849;19;20094;-50
2024/01/15 10:04:57;;;;;;;0.20;0.20;;;;;;;22.20;24.48;99351.44;7400556;19;20394;-50
2024/01/15 10:07:25;;;;;;;6.13;1.10;;;;;;;21.42;24.63;99361.75;7399508;19;20014;-50
2024/01/15 10:09:51;;;;;;;0.17;0.15;;;;;;;20.58;25.70;99365.50;7398494;19;20014;-50
2024/01/15 10:12:18;;;;;;;0.20;0.20;;;;;;;20.56;25.35;99370.97;7396075;19;20044;-50
2024/01/15 10:14:44;;;;;;;0.85;0.85;;;;;;;21.53;24.71;99380.47;7398135;19;20494;-50
2024/01/15 10:17:15;;;;;;;0.28;0.28;;;;;;;20.82;25.12;99384.88;7397326;19;20463;-50
2024/01/15 10:19:41;;;;;;;0.22;0.22;;;;;;;21.14;24.77;99393.00;7396852;19;20015;-50
2024/01/15 10:22:11;;;;;;;0.30;0.30;;;;;;;20.44;25.38;99391.63;7400839;19;20502;-50
2024/01/15 10:24:40;;;;;;;0.70;0.70;;;;;;;21.46;24.79;99398.97;7397210;19;20015;-50
2024/01/15 10:27:10;;;;;;;0.10;0.10;;;;;;;20.70;25.61;99397.84;7398065;19;20075;-50
2024/01/15 10:29:36;;;;;;;7.90;1.48;;;;;;;20.46;25.55;99400.31;7399220;19;20021;-50
2024/01/15 10:32:06;;;;;;;1.75;0.75;;;;;;;20.57;25.44;99403.59;7396061;19;20030;-50
2024/01/15 10:34:32;;;;;;;0.47;0.47;;;;;;;20.49;25.35;99404.88;7398238;19;20021;-50
2024/01/15 10:36:59;;;;;;;0.68;0.50;;;;;;;20.24;25.51;99410.13;7397473;19;20515;-50
2024/01/15 10:39:25;;;;;;;0.10;0.10;;;;;;;19.88;25.60;99404.31;7398835;19;20010;-50
2024/01/15 10:41:51;;;;;;;0.20;0.20;;;;;;;19.85;25.65;99404.66;7398858;19;20400;-50
2024/01/15 10:44:18;;;;;;;0.25;0.25;;;;;;;20.21;25.33;99408.41;7400873;19;20018;-50
2024/01/15 10:46:45;;;;;;;0.82;0.82;;;;;;;20.89;25.03;99412.47;7397600;19;20025;-50
2024/01/15 10:49:11;;;;;;;3.30;1.38;;;;;;;21.52;24.30;99408.06;7396562;19;20047;-50
2024/01/15 10:51:38;;;;;;;2.05;0.95;;;;;;;21.14;24.82;99407.91;7398152;19;20109;-51
2024/01/15 10:54:05;;;;;;;0.45;0.45;;;;;;;21.28;24.52;99410.63;7396099;19;20483;-50
2024/01/15 10:56:35;;;;;;;0.85;0.85;;;;;;;20.80;24.90;99421.50;7395271;19;20014;-50
2024/01/15 10:59:03;;;;;;;1.33;0.60;;;;;;;21.48;24.22;99415.41;7395091;19;20038;-50
2024/01/15 11:01:31;;;;;;;5.95;0.90;;;;;;;21.44;24.56;99412.94;7394937;19;20011;-51
2024/01/15 11:03:57;;;;;;;0.28;0.28;;;;;;;21.23;24.51;99420.78;7398276;19;20034;-50
2024/01/15 11:06:25;;;;;;;0.30;0.30;;;;;;;22.17;24.00;99408.56;7396792;19;20085;-50
2024/01/15 11:08:52;;;;;;;1.92;1.15;;;;;;;20.86;24.88;99410.00;7396850;19;20409;-50
2024/01/15 11:11:18;;;;;;;0.50;0.50;;;;;;;20.98;24.97;99411.22;7395447;19;20018;-50
2024/01/15 11:13:51;;;;;;;1.00;0.60;;;;;;;18.18;27.08;99427.03;7395695;19;20017;-50
2024/01/15 11:16:17;;;;;;;0.20;0.20;;;;;;;20.23;25.53;99414.25;7394290;19;20018;-50
2024/01/15 11:19:02;;;;;;;0.55;0.40;;;;;;;21.35;24.50;99415.56;7396251;19;20468;-51
2024/01/15 11:21:29;;;;;;;2.35;1.23;;;;;;;21.29;24.72;99398.72;7398798;19;20014;-50
2024/01/15 11:24:00;;;;;;;1.52;1.08;;;;;;;20.93;25.07;99404.38;7397218;19;20014;-50
2024/01/15 11:26:38;;;;;;;0.85;0.55;;;;;;;21.21;24.69;99400.00;7396877;19;20007;-50
2024/01/15 11:29:10;;;;;;;5.45;0.60;;;;;;;21.21;24.64;99400.00;7397290;19;20035;-50
2024/01/15 11:31:39;;;;;;;0.47;0.47;;;;;;;21.53;24.29;99409.56;7396454;19;20477;-50